sensor_id;sensor_type;location;lat;lon;timestamp;pressure;altitude;pressure_sealevel;temperature;humidity
42887;BME280;29032;56.028;92.904;2023-01-20T00:02:37;100277.94;;;-18.12;45.50
42887;BME280;29032;56.028;92.904;2023-01-20T00:07:41;100280.31;;;-18.03;44.92
42887;BME280;29032;56.028;92.904;2023-01-20T00:12:43;100278.91;;;-18.34;44.91
42887;BME280;29032;56.028;92.904;2023-01-20T00:17:45;100290.25;;;-18.55;45.29
42887;BME280;29032;56.028;92.904;2023-01-20T00:22:49;100293.44;;;-18.83;45.80
42887;BME280;29032;56.028;92.904;2023-01-20T00:27:51;100294.75;;;-19.04;45.56
42887;BME280;29032;56.028;92.904;2023-01-20T00:32:53;100300.09;;;-19.07;45.38
42887;BME280;29032;56.028;92.904;2023-01-20T00:37:57;100312.63;;;-19.18;46.03
42887;BME280;29032;56.028;92.904;2023-01-20T00:42:59;100304.16;;;-19.20;45.76
42887;BME280;29032;56.028;92.904;2023-01-20T00:48:01;100306.38;;;-19.26;45.40
42887;BME280;29032;56.028;92.904;2023-01-20T00:53:05;100298.59;;;-19.35;45.82
42887;BME280;29032;56.028;92.904;2023-01-20T00:58:07;100312.19;;;-19.24;44.96
42887;BME280;29032;56.028;92.904;2023-01-20T01:03:09;100312.13;;;-19.27;44.72
42887;BME280;29032;56.028;92.904;2023-01-20T01:08:13;100319.41;;;-19.28;44.54
42887;BME280;29032;56.028;92.904;2023-01-20T01:13:15;100312.72;;;-19.45;44.20
42887;BME280;29032;56.028;92.904;2023-01-20T01:18:17;100315.91;;;-19.32;43.83
42887;BME280;29032;56.028;92.904;2023-01-20T01:23:21;100326.31;;;-19.31;43.52
42887;BME280;29032;56.028;92.904;2023-01-20T01:28:23;100318.34;;;-19.23;43.62
42887;BME280;29032;56.028;92.904;2023-01-20T01:33:25;100326.91;;;-19.11;43.58
42887;BME280;29032;56.028;92.904;2023-01-20T01:38:28;100324.09;;;-18.91;43.03
42887;BME280;29032;56.028;92.904;2023-01-20T01:43:32;100331.16;;;-18.76;42.95
42887;BME280;29032;56.028;92.904;2023-01-20T01:48:37;100334.94;;;-18.84;43.49
42887;BME280;29032;56.028;92.904;2023-01-20T01:53:44;100341.00;;;-18.91;42.77
42887;BME280;29032;56.028;92.904;2023-01-20T01:58:49;100346.88;;;-19.12;43.51
42887;BME280;29032;56.028;92.904;2023-01-20T02:03:56;100343.84;;;-19.10;43.68
42887;BME280;29032;56.028;92.904;2023-01-20T02:09:02;100333.78;;;-19.17;43.87
42887;BME280;29032;56.028;92.904;2023-01-20T02:14:05;100329.94;;;-19.16;44.03
42887;BME280;29032;56.028;92.904;2023-01-20T02:19:25;100335.13;;;-19.00;44.24
42887;BME280;29032;56.028;92.904;2023-01-20T02:25:04;100333.47;;;-18.78;43.06
42887;BME280;29032;56.028;92.904;2023-01-20T02:30:38;100334.03;;;-18.95;43.76
42887;BME280;29032;56.028;92.904;2023-01-20T02:35:52;100332.66;;;-18.82;44.35
42887;BME280;29032;56.028;92.904;2023-01-20T02:41:02;100325.22;;;-18.59;44.01
42887;BME280;29032;56.028;92.904;2023-01-20T02:46:10;100328.44;;;-18.42;43.08
42887;BME280;29032;56.028;92.904;2023-01-20T02:51:17;100322.91;;;-18.60;43.65
42887;BME280;29032;56.028;92.904;2023-01-20T02:56:24;100327.22;;;-18.86;44.19
42887;BME280;29032;56.028;92.904;2023-01-20T03:01:30;100335.00;;;-18.77;44.29
42887;BME280;29032;56.028;92.904;2023-01-20T03:06:37;100327.34;;;-18.75;45.13
42887;BME280;29032;56.028;92.904;2023-01-20T03:11:46;100328.06;;;-18.44;44.27
42887;BME280;29032;56.028;92.904;2023-01-20T03:16:50;100328.13;;;-18.34;43.35
42887;BME280;29032;56.028;92.904;2023-01-20T03:21:54;100338.50;;;-18.39;43.65
42887;BME280;29032;56.028;92.904;2023-01-20T03:26:57;100329.34;;;-18.31;43.20
42887;BME280;29032;56.028;92.904;2023-01-20T03:32:01;100336.63;;;-18.32;43.98
42887;BME280;29032;56.028;92.904;2023-01-20T03:37:06;100324.84;;;-18.16;43.88
42887;BME280;29032;56.028;92.904;2023-01-20T03:42:11;100336.59;;;-18.35;43.35
42887;BME280;29032;56.028;92.904;2023-01-20T03:47:26;100336.97;;;-18.33;43.15
42887;BME280;29032;56.028;92.904;2023-01-20T03:52:35;100336.56;;;-18.39;43.00
42887;BME280;29032;56.028;92.904;2023-01-20T03:57:42;100340.81;;;-18.34;42.77
42887;BME280;29032;56.028;92.904;2023-01-20T04:02:46;100334.72;;;-18.31;43.33
42887;BME280;29032;56.028;92.904;2023-01-20T04:07:52;100342.34;;;-17.93;42.67
42887;BME280;29032;56.028;92.904;2023-01-20T04:12:56;100335.22;;;-17.67;41.90
42887;BME280;29032;56.028;92.904;2023-01-20T04:18:10;100331.91;;;-17.43;42.30
42887;BME280;29032;56.028;92.904;2023-01-20T04:23:19;100343.91;;;-17.33;41.86
42887;BME280;29032;56.028;92.904;2023-01-20T04:28:22;100340.78;;;-17.39;42.30
42887;BME280;29032;56.028;92.904;2023-01-20T04:33:25;100336.09;;;-17.49;41.25
42887;BME280;29032;56.028;92.904;2023-01-20T04:38:28;100343.78;;;-17.51;42.04
42887;BME280;29032;56.028;92.904;2023-01-20T04:43:30;100340.41;;;-17.41;40.92
42887;BME280;29032;56.028;92.904;2023-01-20T04:48:33;100343.50;;;-17.39;41.47
42887;BME280;29032;56.028;92.904;2023-01-20T04:53:36;100344.00;;;-17.15;41.22
42887;BME280;29032;56.028;92.904;2023-01-20T04:58:39;100337.13;;;-16.95;40.28
42887;BME280;29032;56.028;92.904;2023-01-20T05:03:41;100334.00;;;-17.11;40.73
42887;BME280;29032;56.028;92.904;2023-01-20T05:08:45;100339.31;;;-17.25;40.08
42887;BME280;29032;56.028;92.904;2023-01-20T05:13:47;100326.47;;;-17.53;40.89
42887;BME280;29032;56.028;92.904;2023-01-20T05:18:49;100329.19;;;-17.46;40.94
42887;BME280;29032;56.028;92.904;2023-01-20T05:23:54;100329.38;;;-17.11;40.98
42887;BME280;29032;56.028;92.904;2023-01-20T05:28:56;100332.91;;;-16.92;39.50
42887;BME280;29032;56.028;92.904;2023-01-20T05:33:59;100333.16;;;-17.26;40.07
42887;BME280;29032;56.028;92.904;2023-01-20T05:39:02;100343.91;;;-17.29;40.92
42887;BME280;29032;56.028;92.904;2023-01-20T05:44:05;100347.06;;;-17.17;39.73
42887;BME280;29032;56.028;92.904;2023-01-20T05:49:09;100349.69;;;-17.27;40.30
42887;BME280;29032;56.028;92.904;2023-01-20T05:54:12;100350.47;;;-17.34;39.97
42887;BME280;29032;56.028;92.904;2023-01-20T05:59:15;100349.94;;;-17.50;40.17
42887;BME280;29032;56.028;92.904;2023-01-20T06:04:17;100352.59;;;-17.61;40.94
42887;BME280;29032;56.028;92.904;2023-01-20T06:09:20;100352.78;;;-17.29;40.47
42887;BME280;29032;56.028;92.904;2023-01-20T06:14:23;100355.13;;;-17.24;41.20
42887;BME280;29032;56.028;92.904;2023-01-20T06:19:25;100352.56;;;-16.88;40.41
42887;BME280;29032;56.028;92.904;2023-01-20T06:24:29;100366.94;;;-16.52;40.13
42887;BME280;29032;56.028;92.904;2023-01-20T06:29:31;100366.91;;;-16.66;40.04
42887;BME280;29032;56.028;92.904;2023-01-20T06:34:33;100365.69;;;-16.80;40.75
42887;BME280;29032;56.028;92.904;2023-01-20T06:39:37;100362.94;;;-17.01;41.48
42887;BME280;29032;56.028;92.904;2023-01-20T06:44:39;100361.63;;;-17.28;41.40
42887;BME280;29032;56.028;92.904;2023-01-20T06:49:41;100369.69;;;-17.36;41.85
42887;BME280;29032;56.028;92.904;2023-01-20T06:54:45;100372.00;;;-17.38;41.56
42887;BME280;29032;56.028;92.904;2023-01-20T06:59:47;100383.78;;;-17.60;41.63
42887;BME280;29032;56.028;92.904;2023-01-20T07:04:51;100380.00;;;-17.52;41.08
42887;BME280;29032;56.028;92.904;2023-01-20T07:09:55;100384.50;;;-17.67;41.39
42887;BME280;29032;56.028;92.904;2023-01-20T07:14:57;100388.19;;;-17.85;40.92
42887;BME280;29032;56.028;92.904;2023-01-20T07:19:59;100393.94;;;-18.31;41.54
42887;BME280;29032;56.028;92.904;2023-01-20T07:25:03;100405.19;;;-18.56;42.64
42887;BME280;29032;56.028;92.904;2023-01-20T07:30:06;100406.06;;;-18.48;41.72
42887;BME280;29032;56.028;92.904;2023-01-20T07:35:08;100405.34;;;-18.41;41.17
42887;BME280;29032;56.028;92.904;2023-01-20T07:40:13;100420.78;;;-18.38;40.42
42887;BME280;29032;56.028;92.904;2023-01-20T07:45:15;100432.63;;;-18.77;40.23
42887;BME280;29032;56.028;92.904;2023-01-20T07:50:17;100442.00;;;-18.67;40.33
42887;BME280;29032;56.028;92.904;2023-01-20T07:55:21;100454.59;;;-18.41;39.94
42887;BME280;29032;56.028;92.904;2023-01-20T08:00:23;100470.97;;;-18.20;39.14
42887;BME280;29032;56.028;92.904;2023-01-20T08:05:25;100475.66;;;-18.13;38.40
42887;BME280;29032;56.028;92.904;2023-01-20T08:10:29;100488.34;;;-18.17;37.81
42887;BME280;29032;56.028;92.904;2023-01-20T08:15:31;100498.97;;;-18.88;37.59
42887;BME280;29032;56.028;92.904;2023-01-20T08:20:33;100517.19;;;-19.27;38.36
42887;BME280;29032;56.028;92.904;2023-01-20T08:25:36;100530.19;;;-19.55;38.04
42887;BME280;29032;56.028;92.904;2023-01-20T08:30:39;100529.91;;;-19.93;39.34
42887;BME280;29032;56.028;92.904;2023-01-20T08:35:41;100548.47;;;-19.84;37.78
42887;BME280;29032;56.028;92.904;2023-01-20T08:40:44;100559.44;;;-19.93;38.82
42887;BME280;29032;56.028;92.904;2023-01-20T08:45:46;100572.25;;;-20.05;37.48
42887;BME280;29032;56.028;92.904;2023-01-20T08:50:48;100580.63;;;-20.26;38.15
42887;BME280;29032;56.028;92.904;2023-01-20T08:55:57;100596.78;;;-20.42;38.08
42887;BME280;29032;56.028;92.904;2023-01-20T09:00:59;100622.84;;;-20.58;37.17
42887;BME280;29032;56.028;92.904;2023-01-20T09:06:02;100625.81;;;-21.42;37.86
42887;BME280;29032;56.028;92.904;2023-01-20T09:11:08;100647.56;;;-21.44;37.73
42887;BME280;29032;56.028;92.904;2023-01-20T09:16:11;100653.47;;;-21.66;37.58
42887;BME280;29032;56.028;92.904;2023-01-20T09:21:13;100678.66;;;-21.55;36.69
42887;BME280;29032;56.028;92.904;2023-01-20T09:26:17;100686.81;;;-21.92;37.26
42887;BME280;29032;56.028;92.904;2023-01-20T09:31:19;100700.00;;;-22.60;36.93
42887;BME280;29032;56.028;92.904;2023-01-20T09:36:23;100711.22;;;-23.03;37.83
42887;BME280;29032;56.028;92.904;2023-01-20T09:41:29;100731.63;;;-22.86;38.47
42887;BME280;29032;56.028;92.904;2023-01-20T09:46:52;100740.56;;;-22.58;38.49
42887;BME280;29032;56.028;92.904;2023-01-20T09:52:06;100752.25;;;-22.87;36.78
42887;BME280;29032;56.028;92.904;2023-01-20T09:57:12;100766.50;;;-23.16;38.28
42887;BME280;29032;56.028;92.904;2023-01-20T10:02:17;100760.84;;;-23.56;35.24
42887;BME280;29032;56.028;92.904;2023-01-20T10:07:25;100776.53;;;-24.26;37.36
42887;BME280;29032;56.028;92.904;2023-01-20T10:12:37;100799.94;;;-24.11;36.94
42887;BME280;29032;56.028;92.904;2023-01-20T10:17:46;100800.72;;;-24.31;38.12
42887;BME280;29032;56.028;92.904;2023-01-20T10:22:54;100801.34;;;-24.05;38.36
42887;BME280;29032;56.028;92.904;2023-01-20T10:28:06;100815.78;;;-23.76;35.75
42887;BME280;29032;56.028;92.904;2023-01-20T10:33:11;100829.81;;;-24.17;36.51
42887;BME280;29032;56.028;92.904;2023-01-20T10:38:20;100845.63;;;-24.50;37.13
42887;BME280;29032;56.028;92.904;2023-01-20T10:43:32;100844.13;;;-25.03;37.46
42887;BME280;29032;56.028;92.904;2023-01-20T10:48:53;100858.38;;;-25.17;36.96
42887;BME280;29032;56.028;92.904;2023-01-20T10:54:16;100874.97;;;-25.20;37.99
42887;BME280;29032;56.028;92.904;2023-01-20T10:59:27;100885.16;;;-25.04;36.19
42887;BME280;29032;56.028;92.904;2023-01-20T11:04:30;100891.09;;;-25.25;36.55
42887;BME280;29032;56.028;92.904;2023-01-20T11:09:34;100908.34;;;-25.14;37.13
42887;BME280;29032;56.028;92.904;2023-01-20T11:14:38;100916.22;;;-24.74;36.61
42887;BME280;29032;56.028;92.904;2023-01-20T11:19:51;100930.13;;;-24.68;37.02
42887;BME280;29032;56.028;92.904;2023-01-20T11:24:54;100921.19;;;-24.98;36.34
42887;BME280;29032;56.028;92.904;2023-01-20T11:30:00;100952.00;;;-25.32;36.86
42887;BME280;29032;56.028;92.904;2023-01-20T11:35:17;100956.94;;;-25.96;36.80
42887;BME280;29032;56.028;92.904;2023-01-20T11:40:22;100969.56;;;-26.33;36.95
42887;BME280;29032;56.028;92.904;2023-01-20T11:45:29;100970.91;;;-26.66;37.08
42887;BME280;29032;56.028;92.904;2023-01-20T11:50:34;100980.56;;;-26.70;36.89
42887;BME280;29032;56.028;92.904;2023-01-20T11:55:48;100990.94;;;-26.96;36.90
42887;BME280;29032;56.028;92.904;2023-01-20T12:00:59;101000.31;;;-27.26;36.46
42887;BME280;29032;56.028;92.904;2023-01-20T12:06:10;101008.34;;;-27.59;37.53
42887;BME280;29032;56.028;92.904;2023-01-20T12:11:19;101017.88;;;-27.85;37.29
42887;BME280;29032;56.028;92.904;2023-01-20T12:16:27;101031.50;;;-27.92;37.78
42887;BME280;29032;56.028;92.904;2023-01-20T12:21:36;101043.91;;;-27.60;37.12
42887;BME280;29032;56.028;92.904;2023-01-20T12:26:42;101041.38;;;-27.38;36.63
42887;BME280;29032;56.028;92.904;2023-01-20T12:31:45;101065.97;;;-27.32;36.45
42887;BME280;29032;56.028;92.904;2023-01-20T12:37:05;101072.53;;;-27.43;36.53
42887;BME280;29032;56.028;92.904;2023-01-20T12:42:42;101089.00;;;-27.60;36.98
42887;BME280;29032;56.028;92.904;2023-01-20T12:48:02;101097.94;;;-27.56;36.51
42887;BME280;29032;56.028;92.904;2023-01-20T12:53:21;101114.97;;;-27.89;36.53
42887;BME280;29032;56.028;92.904;2023-01-20T12:58:38;101116.56;;;-28.26;36.63
42887;BME280;29032;56.028;92.904;2023-01-20T13:04:01;101133.59;;;-28.32;36.98
42887;BME280;29032;56.028;92.904;2023-01-20T13:09:16;101141.84;;;-27.96;37.46
42887;BME280;29032;56.028;92.904;2023-01-20T13:14:25;101147.22;;;-27.69;36.95
42887;BME280;29032;56.028;92.904;2023-01-20T13:19:34;101155.88;;;-27.96;36.80
42887;BME280;29032;56.028;92.904;2023-01-20T13:24:38;101167.19;;;-28.09;36.89
42887;BME280;29032;56.028;92.904;2023-01-20T13:29:51;101162.47;;;-27.93;37.19
42887;BME280;29032;56.028;92.904;2023-01-20T13:34:55;101166.19;;;-27.75;35.85
42887;BME280;29032;56.028;92.904;2023-01-20T13:39:58;101166.69;;;-27.73;36.20
42887;BME280;29032;56.028;92.904;2023-01-20T13:45:21;101182.44;;;-28.01;36.46
42887;BME280;29032;56.028;92.904;2023-01-20T13:50:28;101174.53;;;-27.68;37.18
42887;BME280;29032;56.028;92.904;2023-01-20T13:55:48;101187.72;;;-27.30;36.22
42887;BME280;29032;56.028;92.904;2023-01-20T14:00:52;101183.31;;;-27.54;36.60
42887;BME280;29032;56.028;92.904;2023-01-20T14:05:58;101205.38;;;-27.72;35.41
42887;BME280;29032;56.028;92.904;2023-01-20T14:11:08;101213.81;;;-28.08;36.10
42887;BME280;29032;56.028;92.904;2023-01-20T14:16:18;101211.09;;;-28.03;36.99
42887;BME280;29032;56.028;92.904;2023-01-20T14:21:24;101209.50;;;-27.66;36.88
42887;BME280;29032;56.028;92.904;2023-01-20T14:26:28;101219.94;;;-27.56;36.13
42887;BME280;29032;56.028;92.904;2023-01-20T14:31:34;101222.25;;;-28.06;36.74
42887;BME280;29032;56.028;92.904;2023-01-20T14:36:38;101232.16;;;-28.35;36.20
42887;BME280;29032;56.028;92.904;2023-01-20T14:41:47;101250.88;;;-28.27;36.04
42887;BME280;29032;56.028;92.904;2023-01-20T14:46:51;101253.13;;;-28.15;37.32
42887;BME280;29032;56.028;92.904;2023-01-20T14:51:55;101254.69;;;-28.33;35.48
42887;BME280;29032;56.028;92.904;2023-01-20T14:56:58;101266.13;;;-28.90;35.45
42887;BME280;29032;56.028;92.904;2023-01-20T15:02:08;101261.09;;;-29.21;35.95
42887;BME280;29032;56.028;92.904;2023-01-20T15:07:19;101271.56;;;-29.06;36.89
42887;BME280;29032;56.028;92.904;2023-01-20T15:12:38;101277.28;;;-28.93;35.62
42887;BME280;29032;56.028;92.904;2023-01-20T15:18:02;101275.75;;;-28.99;36.03
42887;BME280;29032;56.028;92.904;2023-01-20T15:23:13;101284.09;;;-29.16;35.90
42887;BME280;29032;56.028;92.904;2023-01-20T15:28:20;101289.75;;;-29.33;36.21
42887;BME280;29032;56.028;92.904;2023-01-20T15:33:23;101293.47;;;-29.34;35.83
42887;BME280;29032;56.028;92.904;2023-01-20T15:38:30;101294.13;;;-29.57;36.56
42887;BME280;29032;56.028;92.904;2023-01-20T15:43:33;101304.16;;;-29.54;36.51
42887;BME280;29032;56.028;92.904;2023-01-20T15:48:35;101317.34;;;-29.44;36.46
42887;BME280;29032;56.028;92.904;2023-01-20T15:53:38;101317.22;;;-29.29;36.23
42887;BME280;29032;56.028;92.904;2023-01-20T15:58:41;101324.72;;;-29.41;36.28
42887;BME280;29032;56.028;92.904;2023-01-20T16:03:43;101326.38;;;-29.55;36.72
42887;BME280;29032;56.028;92.904;2023-01-20T16:08:48;101331.75;;;-29.66;36.54
42887;BME280;29032;56.028;92.904;2023-01-20T16:13:50;101335.59;;;-29.48;36.63
42887;BME280;29032;56.028;92.904;2023-01-20T16:18:53;101342.59;;;-29.67;36.32
42887;BME280;29032;56.028;92.904;2023-01-20T16:23:56;101348.69;;;-29.67;36.49
42887;BME280;29032;56.028;92.904;2023-01-20T16:28:58;101355.94;;;-29.48;36.50
42887;BME280;29032;56.028;92.904;2023-01-20T16:34:00;101357.31;;;-29.61;36.08
42887;BME280;29032;56.028;92.904;2023-01-20T16:39:04;101360.84;;;-29.66;35.92
42887;BME280;29032;56.028;92.904;2023-01-20T16:44:07;101370.03;;;-29.63;37.25
42887;BME280;29032;56.028;92.904;2023-01-20T16:49:10;101381.97;;;-29.66;36.43
42887;BME280;29032;56.028;92.904;2023-01-20T16:54:13;101380.31;;;-29.51;35.89
42887;BME280;29032;56.028;92.904;2023-01-20T16:59:15;101391.50;;;-29.70;35.49
42887;BME280;29032;56.028;92.904;2023-01-20T17:04:17;101396.06;;;-29.91;36.24
42887;BME280;29032;56.028;92.904;2023-01-20T17:09:21;101407.47;;;-29.95;34.92
42887;BME280;29032;56.028;92.904;2023-01-20T17:14:23;101418.34;;;-30.42;34.61
42887;BME280;29032;56.028;92.904;2023-01-20T17:19:26;101421.25;;;-30.49;36.63
42887;BME280;29032;56.028;92.904;2023-01-20T17:24:29;101434.19;;;-30.48;35.73
42887;BME280;29032;56.028;92.904;2023-01-20T17:29:31;101440.78;;;-30.50;35.61
42887;BME280;29032;56.028;92.904;2023-01-20T17:34:33;101446.34;;;-30.72;35.80
42887;BME280;29032;56.028;92.904;2023-01-20T17:39:37;101457.16;;;-30.74;36.39
42887;BME280;29032;56.028;92.904;2023-01-20T17:44:39;101447.63;;;-30.54;35.80
42887;BME280;29032;56.028;92.904;2023-01-20T17:49:42;101464.03;;;-30.62;35.19
42887;BME280;29032;56.028;92.904;2023-01-20T17:54:45;101477.16;;;-30.88;35.89
42887;BME280;29032;56.028;92.904;2023-01-20T17:59:48;101470.25;;;-31.09;36.21
42887;BME280;29032;56.028;92.904;2023-01-20T18:04:50;101479.22;;;-31.10;36.13
42887;BME280;29032;56.028;92.904;2023-01-20T18:09:53;101485.31;;;-31.05;35.48
42887;BME280;29032;56.028;92.904;2023-01-20T18:14:56;101493.00;;;-30.88;36.52
42887;BME280;29032;56.028;92.904;2023-01-20T18:19:58;101495.16;;;-30.59;35.78
42887;BME280;29032;56.028;92.904;2023-01-20T18:25:01;101497.28;;;-30.16;36.08
42887;BME280;29032;56.028;92.904;2023-01-20T18:30:04;101513.66;;;-30.24;35.19
42887;BME280;29032;56.028;92.904;2023-01-20T18:35:07;101524.50;;;-30.30;35.55
42887;BME280;29032;56.028;92.904;2023-01-20T18:40:11;101535.56;;;-30.38;35.97
42887;BME280;29032;56.028;92.904;2023-01-20T18:45:13;101535.88;;;-30.09;36.03
42887;BME280;29032;56.028;92.904;2023-01-20T18:50:16;101545.09;;;-29.86;34.73
42887;BME280;29032;56.028;92.904;2023-01-20T18:55:19;101553.28;;;-30.03;34.05
42887;BME280;29032;56.028;92.904;2023-01-20T19:00:22;101564.59;;;-30.49;34.25
42887;BME280;29032;56.028;92.904;2023-01-20T19:05:24;101571.09;;;-30.92;34.81
42887;BME280;29032;56.028;92.904;2023-01-20T19:10:28;101581.66;;;-31.44;34.93
42887;BME280;29032;56.028;92.904;2023-01-20T19:15:30;101575.56;;;-31.50;36.19
42887;BME280;29032;56.028;92.904;2023-01-20T19:20:32;101591.56;;;-31.14;34.93
42887;BME280;29032;56.028;92.904;2023-01-20T19:25:35;101602.69;;;-31.02;34.61
42887;BME280;29032;56.028;92.904;2023-01-20T19:30:37;101609.78;;;-31.55;35.13
42887;BME280;29032;56.028;92.904;2023-01-20T19:35:39;101632.59;;;-31.71;36.04
42887;BME280;29032;56.028;92.904;2023-01-20T19:40:43;101636.50;;;-31.78;34.73
42887;BME280;29032;56.028;92.904;2023-01-20T19:45:45;101646.72;;;-32.09;34.74
42887;BME280;29032;56.028;92.904;2023-01-20T19:50:47;101650.41;;;-32.10;35.84
42887;BME280;29032;56.028;92.904;2023-01-20T19:55:51;101660.75;;;-31.76;35.51
42887;BME280;29032;56.028;92.904;2023-01-20T20:00:54;101666.88;;;-31.66;35.96
42887;BME280;29032;56.028;92.904;2023-01-20T20:05:56;101667.06;;;-31.72;35.03
42887;BME280;29032;56.028;92.904;2023-01-20T20:10:59;101679.53;;;-31.95;35.60
42887;BME280;29032;56.028;92.904;2023-01-20T20:16:02;101697.53;;;-32.35;35.53
42887;BME280;29032;56.028;92.904;2023-01-20T20:21:05;101697.94;;;-32.49;34.70
42887;BME280;29032;56.028;92.904;2023-01-20T20:26:10;101704.63;;;-32.36;36.01
42887;BME280;29032;56.028;92.904;2023-01-20T20:31:12;101719.97;;;-32.06;35.31
42887;BME280;29032;56.028;92.904;2023-01-20T20:36:15;101716.19;;;-31.88;35.27
42887;BME280;29032;56.028;92.904;2023-01-20T20:41:18;101725.47;;;-31.86;33.79
42887;BME280;29032;56.028;92.904;2023-01-20T20:46:21;101742.28;;;-32.35;34.21
42887;BME280;29032;56.028;92.904;2023-01-20T20:51:23;101735.88;;;-32.83;35.18
42887;BME280;29032;56.028;92.904;2023-01-20T20:56:27;101741.44;;;-32.63;35.51
42887;BME280;29032;56.028;92.904;2023-01-20T21:01:30;101747.94;;;-32.22;34.08
42887;BME280;29032;56.028;92.904;2023-01-20T21:06:33;101757.44;;;-31.99;35.24
42887;BME280;29032;56.028;92.904;2023-01-20T21:11:37;101768.16;;;-31.57;34.81
42887;BME280;29032;56.028;92.904;2023-01-20T21:16:39;101786.66;;;-31.19;34.46
42887;BME280;29032;56.028;92.904;2023-01-20T21:21:41;101799.25;;;-31.27;34.66
42887;BME280;29032;56.028;92.904;2023-01-20T21:26:44;101802.28;;;-31.13;34.93
42887;BME280;29032;56.028;92.904;2023-01-20T21:31:47;101811.63;;;-31.00;34.34
42887;BME280;29032;56.028;92.904;2023-01-20T21:36:49;101815.41;;;-31.18;32.85
42887;BME280;29032;56.028;92.904;2023-01-20T21:41:52;101815.13;;;-31.75;34.58
42887;BME280;29032;56.028;92.904;2023-01-20T21:46:55;101834.72;;;-31.66;34.36
42887;BME280;29032;56.028;92.904;2023-01-20T21:51:57;101849.69;;;-31.50;34.17
42887;BME280;29032;56.028;92.904;2023-01-20T21:57:01;101863.78;;;-31.34;34.09
42887;BME280;29032;56.028;92.904;2023-01-20T22:02:04;101864.19;;;-31.47;34.68
42887;BME280;29032;56.028;92.904;2023-01-20T22:07:06;101879.69;;;-31.73;33.54
42887;BME280;29032;56.028;92.904;2023-01-20T22:12:10;101893.19;;;-32.08;34.20
42887;BME280;29032;56.028;92.904;2023-01-20T22:17:12;101909.63;;;-32.40;34.83
42887;BME280;29032;56.028;92.904;2023-01-20T22:22:15;101918.53;;;-32.74;33.46
42887;BME280;29032;56.028;92.904;2023-01-20T22:27:18;101929.44;;;-32.82;34.95
42887;BME280;29032;56.028;92.904;2023-01-20T22:32:20;101928.84;;;-32.56;35.01
42887;BME280;29032;56.028;92.904;2023-01-20T22:37:22;101955.38;;;-32.24;33.91
42887;BME280;29032;56.028;92.904;2023-01-20T22:42:26;101964.28;;;-32.08;33.99
42887;BME280;29032;56.028;92.904;2023-01-20T22:47:28;101979.22;;;-31.97;33.85
42887;BME280;29032;56.028;92.904;2023-01-20T22:52:30;101991.44;;;-31.91;33.91
42887;BME280;29032;56.028;92.904;2023-01-20T22:57:34;102008.19;;;-31.97;33.81
42887;BME280;29032;56.028;92.904;2023-01-20T23:02:36;102014.91;;;-32.06;33.87
42887;BME280;29032;56.028;92.904;2023-01-20T23:07:38;102010.97;;;-32.03;32.77
42887;BME280;29032;56.028;92.904;2023-01-20T23:12:42;102031.47;;;-32.22;34.09
42887;BME280;29032;56.028;92.904;2023-01-20T23:17:44;102036.63;;;-32.89;32.16
42887;BME280;29032;56.028;92.904;2023-01-20T23:22:46;102041.00;;;-34.17;33.60
42887;BME280;29032;56.028;92.904;2023-01-20T23:27:50;102035.97;;;-34.91;33.15
42887;BME280;29032;56.028;92.904;2023-01-20T23:32:52;102051.81;;;-35.34;33.40
42887;BME280;29032;56.028;92.904;2023-01-20T23:37:54;102051.94;;;-35.47;34.53
42887;BME280;29032;56.028;92.904;2023-01-20T23:42:58;102059.78;;;-35.10;34.07
42887;BME280;29032;56.028;92.904;2023-01-20T23:48:00;102073.06;;;-35.24;33.88
42887;BME280;29032;56.028;92.904;2023-01-20T23:53:02;102082.97;;;-35.44;34.64
42887;BME280;29032;56.028;92.904;2023-01-20T23:58:05;102099.69;;;-34.90;34.36
